Time;durP1;ratioP1;P1;durP2;ratioP2;P2;SDS_P1;SDS_P2;PMS_P1;PMS_P2;Temp;Humidity;BMP_temperature;BMP_pressure;BME280_temperature;BME280_humidity;BME280_pressure;Samples;Min_cycle;Max_cycle;Signal;HPM_P1;HPM_P2
2023/04/05 00:00:49;;;;;;;;;4.50;4.50;;;;;21.17;32.73;101713.19;5065719;27;70916;-69
2023/04/05 00:03:17;;;;;;;;;5.75;4.25;;;;;21.17;33.14;101709.69;5065903;27;45728;-68
2023/04/05 00:05:42;;;;;;;;;5.50;5.50;;;;;21.17;32.94;101707.03;5077757;27;45517;-68
2023/04/05 00:08:12;;;;;;;;;5.50;4.00;;;;;21.14;32.85;101707.19;5090458;27;74644;-68
2023/04/05 00:10:37;;;;;;;;;6.00;4.75;;;;;21.13;33.09;101701.03;5065718;27;45478;-68
2023/04/05 00:13:03;;;;;;;;;4.25;4.25;;;;;21.15;32.81;101706.25;5073028;27;45182;-68
2023/04/05 00:15:30;;;;;;;;;5.50;5.50;;;;;21.13;32.85;101709.00;5054858;27;45480;-68
2023/04/05 00:17:56;;;;;;;;;6.50;4.50;;;;;21.12;32.86;101706.44;5077759;27;45513;-68
2023/04/05 00:20:22;;;;;;;;;7.25;5.25;;;;;21.10;32.67;101703.84;5073167;27;45416;-68
2023/04/05 00:22:49;;;;;;;;;5.00;4.25;;;;;21.11;32.98;101704.72;5065207;27;45780;-68
2023/04/05 00:25:15;;;;;;;;;7.00;6.00;;;;;21.11;32.76;101704.72;5076595;27;45334;-68
2023/04/05 00:27:44;;;;;;;;;8.75;5.00;;;;;21.10;32.84;101695.84;5070522;27;47126;-68
2023/04/05 00:30:09;;;;;;;;;5.25;5.00;;;;;21.11;32.65;101702.06;5068656;27;50311;-68
2023/04/05 00:32:35;;;;;;;;;5.00;4.25;;;;;21.11;32.68;101702.91;5070489;27;45602;-68
2023/04/05 00:35:00;;;;;;;;;6.75;6.00;;;;;21.09;32.72;101701.25;5057628;28;71444;-68
2023/04/05 00:37:25;;;;;;;;;4.00;4.00;;;;;21.10;33.21;101703.00;5091784;27;67435;-68
2023/04/05 00:39:52;;;;;;;;;6.00;5.75;;;;;21.08;32.96;101694.25;5057595;27;72698;-68
2023/04/05 00:42:18;;;;;;;;;6.00;6.00;;;;;21.09;33.07;101699.47;5070799;28;45304;-68
2023/04/05 00:44:43;;;;;;;;;4.75;4.75;;;;;21.08;32.80;101700.41;5053925;27;45614;-68
2023/04/05 00:47:08;;;;;;;;;5.00;5.00;;;;;21.08;32.93;101694.25;5065424;27;47331;-68
2023/04/05 00:49:37;;;;;;;;;5.75;4.75;;;;;21.08;32.67;101691.59;5074578;27;68224;-68
2023/04/05 00:52:03;;;;;;;;;4.50;4.50;;;;;21.07;33.05;101685.41;5076883;27;45249;-68
2023/04/05 00:54:29;;;;;;;;;8.00;6.00;;;;;21.07;32.87;101690.72;5090070;27;72265;-68
2023/04/05 00:56:55;;;;;;;;;5.00;5.00;;;;;21.06;32.90;101686.34;5093168;27;47027;-68
2023/04/05 00:59:21;;;;;;;;;6.25;5.00;;;;;21.04;32.58;101686.41;5072151;27;45401;-68
2023/04/05 01:01:53;;;;;;;;;7.00;5.50;;;;;21.03;33.15;101689.16;5067741;27;64033;-68
2023/04/05 01:04:21;;;;;;;;;6.00;4.50;;;;;21.04;33.00;101694.41;5063724;27;45502;-68
2023/04/05 01:06:58;;;;;;;;;4.75;4.00;;;;;21.03;33.17;101687.38;5062472;27;47504;-68
2023/04/05 01:09:45;;;;;;;;;5.75;4.75;;;;;21.04;32.71;101686.41;5075005;27;45498;-68
2023/04/05 01:12:16;;;;;;;;;5.00;5.00;;;;;21.03;33.12;101683.84;5097094;27;45455;-68
2023/04/05 01:14:46;;;;;;;;;7.50;6.00;;;;;20.99;32.96;101669.84;5081065;28;45280;-68
2023/04/05 01:17:12;;;;;;;;;9.50;6.25;;;;;21.00;33.21;101673.34;5064224;27;46339;-68
2023/04/05 01:19:40;;;;;;;;;5.75;5.75;;;;;20.98;33.04;101662.84;5088068;27;45558;-68
2023/04/05 01:22:19;;;;;;;;;6.25;6.00;;;;;21.01;33.03;101672.44;5063827;28;45288;-68
2023/04/05 01:24:56;;;;;;;;;5.25;4.25;;;;;21.00;32.78;101665.38;5075382;27;45529;-68
2023/04/05 01:27:28;;;;;;;;;5.75;5.75;;;;;20.98;32.65;101659.28;5070086;27;47978;-68
2023/04/05 01:29:53;;;;;;;;;8.00;5.50;;;;;21.00;32.67;101660.06;5071334;27;45753;-68
2023/04/05 01:32:27;;;;;;;;;8.00;5.75;;;;;20.99;32.73;101659.22;5082081;27;45480;-68
2023/04/05 01:35:02;;;;;;;;;5.00;4.75;;;;;20.97;32.82;101650.47;5084945;27;45534;-68
2023/04/05 01:37:30;;;;;;;;;7.25;6.00;;;;;20.98;32.97;101653.97;5067960;27;46634;-68
2023/04/05 01:39:56;;;;;;;;;5.00;5.00;;;;;20.93;32.83;101648.91;5056440;27;46020;-68
2023/04/05 01:42:26;;;;;;;;;4.75;4.75;;;;;20.98;32.79;101659.28;5055412;27;69876;-68
2023/04/05 01:44:53;;;;;;;;;4.75;4.75;;;;;20.98;32.94;101651.31;5059027;27;45576;-68
2023/04/05 01:47:19;;;;;;;;;6.00;6.00;;;;;20.94;32.97;101645.28;5067401;27;45558;-68
2023/04/05 01:49:45;;;;;;;;;6.50;5.25;;;;;20.96;32.63;101646.06;5078950;27;45609;-68
2023/04/05 01:52:10;;;;;;;;;5.50;4.00;;;;;20.94;32.55;101642.63;5073835;27;45415;-68
2023/04/05 01:54:35;;;;;;;;;6.00;6.00;;;;;20.95;32.86;101644.38;5068521;28;70711;-68
2023/04/05 01:57:01;;;;;;;;;5.00;5.00;;;;;20.92;33.04;101639.22;5081677;27;46118;-68
2023/04/05 01:59:26;;;;;;;;;3.00;3.00;;;;;20.93;32.53;101642.72;5080589;27;45461;-68
2023/04/05 02:01:51;;;;;;;;;6.50;4.25;;;;;20.93;32.79;101646.25;5070392;27;65924;-68
2023/04/05 02:04:17;;;;;;;;;4.00;3.25;;;;;20.95;32.87;101643.53;5074863;27;45490;-68
2023/04/05 02:06:42;;;;;;;;;5.00;4.00;;;;;20.95;32.71;101648.84;5070177;27;52171;-68
2023/04/05 02:09:07;;;;;;;;;5.75;3.50;;;;;20.91;32.61;101629.53;5067766;27;45377;-68
2023/04/05 02:11:33;;;;;;;;;4.50;4.00;;;;;20.92;32.59;101628.56;5079791;27;62807;-68
2023/04/05 02:13:58;;;;;;;;;8.25;5.00;;;;;20.92;32.60;101627.72;5070471;27;56827;-68
2023/04/05 02:16:25;;;;;;;;;6.25;5.00;;;;;20.92;33.17;101622.41;5077063;27;47144;-68
2023/04/05 02:18:56;;;;;;;;;4.75;4.75;;;;;20.92;32.87;101622.41;5093638;27;45525;-68
2023/04/05 02:21:22;;;;;;;;;5.75;5.00;;;;;20.91;32.82;101621.53;5063019;27;45439;-68
2023/04/05 02:23:48;;;;;;;;;3.25;3.25;;;;;20.90;32.76;101616.31;5058673;27;45651;-68
2023/04/05 02:26:13;;;;;;;;;5.50;4.50;;;;;20.89;33.01;101615.44;5069010;28;46204;-68
2023/04/05 02:28:39;;;;;;;;;3.50;3.50;;;;;20.89;33.02;101614.56;5059413;27;55644;-68
2023/04/05 02:31:10;;;;;;;;;7.50;4.50;;;;;20.90;32.66;101616.31;5093184;27;45373;-68
2023/04/05 02:33:36;;;;;;;;;5.25;3.00;;;;;20.89;32.96;101611.91;5058545;27;45233;-68
2023/04/05 02:36:10;;;;;;;;;4.00;4.00;;;;;20.90;32.76;101611.84;5071127;27;46673;-68
2023/04/05 02:38:35;;;;;;;;;5.00;3.75;;;;;20.88;33.06;101613.72;5062447;27;46287;-68
2023/04/05 02:41:01;;;;;;;;;5.00;5.00;;;;;20.87;32.66;101614.66;5089961;27;45490;-68
2023/04/05 02:43:27;;;;;;;;;5.00;4.00;;;;;20.89;33.04;101615.44;5062401;27;45538;-68
2023/04/05 02:45:52;;;;;;;;;4.50;4.50;;;;;20.85;32.50;101600.59;5089855;27;45647;-68
2023/04/05 02:48:18;;;;;;;;;7.00;5.00;;;;;20.85;32.52;101603.25;5080898;27;45477;-68
2023/04/05 02:50:48;;;;;;;;;6.25;4.00;;;;;20.86;32.75;101607.63;5086766;27;65661;-69
2023/04/05 02:53:13;;;;;;;;;6.00;4.50;;;;;20.85;33.09;101601.44;5069049;28;45375;-68
2023/04/05 02:55:41;;;;;;;;;3.50;3.50;;;;;20.88;33.05;101613.72;5096510;27;45454;-68
2023/04/05 02:58:06;;;;;;;;;4.00;3.00;;;;;20.85;32.92;101603.25;5087053;27;45784;-69
2023/04/05 03:00:32;;;;;;;;;4.75;3.50;;;;;20.87;32.89;101604.00;5081833;27;45488;-69
2023/04/05 03:02:58;;;;;;;;;4.75;3.50;;;;;20.89;32.97;101610.09;5083745;27;45612;-68
2023/04/05 03:05:23;;;;;;;;;4.50;4.50;;;;;20.86;32.97;101605.81;5094518;27;46198;-69
2023/04/05 03:07:50;;;;;;;;;4.75;4.00;;;;;20.90;33.08;101601.19;5073608;27;60829;-69
2023/04/05 03:10:17;;;;;;;;;3.75;3.75;;;;;20.92;32.68;101590.47;5089162;27;45453;-68
2023/04/05 03:12:43;;;;;;;;;4.75;4.00;;;;;20.94;33.09;101591.22;5077168;27;45446;-68
2023/04/05 03:15:09;;;;;;;;;6.75;3.75;;;;;20.94;33.22;101594.75;5086776;27;45540;-68
2023/04/05 03:17:36;;;;;;;;;5.00;5.00;;;;;20.90;32.63;101587.88;5064724;28;45286;-68
2023/04/05 03:20:04;;;;;;;;;4.25;4.00;;;;;20.98;33.01;101598.09;5071043;28;45497;-68
2023/04/05 03:22:29;;;;;;;;;5.00;4.25;;;;;20.98;32.78;101596.31;5063850;27;45540;-68
2023/04/05 03:24:56;;;;;;;;;4.25;4.25;;;;;20.96;32.81;101595.50;5069286;27;45562;-69
2023/04/05 03:27:21;;;;;;;;;4.00;4.00;;;;;20.98;33.20;101601.63;5093803;27;45480;-68
2023/04/05 03:29:46;;;;;;;;;6.00;4.00;;;;;21.02;32.88;101599.66;5061270;27;45438;-68
2023/04/05 03:32:12;;;;;;;;;5.00;5.00;;;;;21.02;33.12;101596.97;5066922;28;61177;-68
2023/04/05 03:34:38;;;;;;;;;4.50;4.00;;;;;21.04;33.17;101600.41;5072542;27;46230;-68
2023/04/05 03:37:03;;;;;;;;;5.75;5.00;;;;;21.05;32.74;101602.09;5078908;27;63434;-68
2023/04/05 03:39:28;;;;;;;;;5.25;5.00;;;;;21.06;33.13;101603.84;5068599;27;66714;-68
2023/04/05 03:41:55;;;;;;;;;5.25;5.25;;;;;21.05;32.59;101600.31;5090992;27;48280;-68
2023/04/05 03:44:21;;;;;;;;;4.00;4.00;;;;;21.08;33.44;101601.09;5078828;27;45419;-68
2023/04/05 03:46:46;;;;;;;;;5.50;5.50;;;;;21.05;33.29;101595.00;5064631;27;71557;-68
2023/04/05 03:49:11;;;;;;;;;6.50;6.00;;;;;21.09;32.73;101598.34;5091434;27;45299;-68
2023/04/05 03:51:37;;;;;;;;;5.50;4.50;;;;;21.08;32.74;101593.97;5065458;27;45439;-68
2023/04/05 03:54:02;;;;;;;;;6.25;6.25;;;;;21.09;33.17;101594.81;5094258;27;45283;-68
2023/04/05 03:56:27;;;;;;;;;7.25;5.75;;;;;21.09;32.97;101592.13;5076978;27;45516;-68
2023/04/05 03:58:53;;;;;;;;;5.25;5.00;;;;;21.10;32.95;101597.38;5094076;27;45507;-68
2023/04/05 04:01:18;;;;;;;;;6.00;6.00;;;;;21.09;32.83;101598.34;5094746;27;51408;-68
2023/04/05 04:03:43;;;;;;;;;5.50;5.50;;;;;21.08;32.61;101588.63;5070606;27;70382;-68
2023/04/05 04:06:10;;;;;;;;;5.00;4.25;;;;;21.09;32.57;101594.81;5063941;28;45764;-68
2023/04/05 04:08:35;;;;;;;;;6.00;6.00;;;;;21.08;32.77;101593.97;5064306;28;45394;-69
2023/04/05 04:11:01;;;;;;;;;5.50;5.50;;;;;21.11;33.12;101596.44;5062519;27;45654;-69
2023/04/05 04:13:26;;;;;;;;;8.75;5.75;;;;;21.10;32.94;101591.22;5072614;27;46197;-68
2023/04/05 04:15:51;;;;;;;;;7.75;6.00;;;;;21.10;32.72;101584.06;5072195;28;69543;-68
2023/04/05 04:18:17;;;;;;;;;7.00;5.25;;;;;21.08;32.65;101585.97;5075462;27;69529;-68
2023/04/05 04:20:42;;;;;;;;;8.00;6.00;;;;;21.11;32.96;101587.63;5089778;27;57210;-68
2023/04/05 04:23:08;;;;;;;;;5.00;5.00;;;;;21.09;32.86;101584.16;5068413;27;45344;-68
2023/04/05 04:25:34;;;;;;;;;7.00;5.00;;;;;21.09;32.73;101582.38;5071130;28;45375;-68
2023/04/05 04:28:00;;;;;;;;;6.00;5.75;;;;;21.10;33.14;101584.06;5092673;27;45279;-68
2023/04/05 04:30:25;;;;;;;;;6.25;5.00;;;;;21.09;32.65;101584.16;5062445;27;45201;-68
2023/04/05 04:32:54;;;;;;;;;5.00;5.00;;;;;21.10;32.86;101588.53;5089625;27;48644;-68
2023/04/05 04:35:20;;;;;;;;;6.00;4.25;;;;;21.09;32.81;101600.13;5088910;27;45371;-68
2023/04/05 04:37:46;;;;;;;;;7.50;7.00;;;;;21.04;32.85;101587.94;5071464;27;45481;-68
2023/04/05 04:40:16;;;;;;;;;10.00;5.00;;;;;21.07;33.08;101594.91;5073705;28;45598;-68
2023/04/05 04:42:45;;;;;;;;;6.75;6.00;;;;;21.07;32.71;101594.91;5085854;27;45524;-68
2023/04/05 04:45:18;;;;;;;;;6.50;6.00;;;;;21.03;32.86;101582.72;5069118;28;45510;-68
2023/04/05 04:47:44;;;;;;;;;6.75;6.75;;;;;21.05;32.63;101586.13;5066524;27;45672;-68
2023/04/05 04:50:10;;;;;;;;;7.75;6.25;;;;;21.04;32.66;101584.44;5064683;27;45498;-68
2023/04/05 04:52:37;;;;;;;;;9.75;5.50;;;;;21.02;33.13;101575.69;5063339;27;47991;-68
2023/04/05 04:55:03;;;;;;;;;6.00;4.75;;;;;21.03;32.79;101582.72;5084677;27;45773;-68
2023/04/05 04:57:29;;;;;;;;;9.25;6.00;;;;;21.01;33.01;101579.28;5077521;27;45260;-67
2023/04/05 04:59:54;;;;;;;;;8.00;5.75;;;;;20.99;32.76;101575.88;5073537;28;45330;-68
2023/04/05 05:02:23;;;;;;;;;5.00;5.00;;;;;21.02;32.80;101587.19;5064723;27;46246;-68
2023/04/05 05:04:48;;;;;;;;;7.25;6.00;;;;;21.00;33.02;101580.22;5072771;27;45370;-68
2023/04/05 05:07:14;;;;;;;;;6.75;6.25;;;;;21.01;32.57;101587.28;5069465;28;45676;-68
2023/04/05 05:09:40;;;;;;;;;6.75;5.50;;;;;21.00;32.68;101574.91;5095871;27;45650;-68
2023/04/05 05:12:05;;;;;;;;;6.25;5.25;;;;;21.00;32.68;101581.09;5073984;27;45518;-68
2023/04/05 05:14:31;;;;;;;;;8.00;6.00;;;;;20.99;32.84;101574.06;5085147;27;45339;-69
2023/04/05 05:16:57;;;;;;;;;5.25;5.25;;;;;20.99;33.08;101579.38;5066452;27;68954;-68
2023/04/05 05:19:23;;;;;;;;;6.75;6.00;;;;;20.97;33.07;101567.97;5077756;27;45509;-68
2023/04/05 05:21:49;;;;;;;;;5.00;5.00;;;;;20.99;32.65;101575.88;5090841;27;45414;-68
2023/04/05 05:24:14;;;;;;;;;6.00;5.25;;;;;21.00;33.03;101574.91;5056022;27;45534;-69
2023/04/05 05:26:39;;;;;;;;;7.00;5.25;;;;;21.00;32.85;101572.22;5067403;27;46078;-68
2023/04/05 05:29:05;;;;;;;;;9.50;4.50;;;;;21.01;33.06;101577.47;5065400;27;45482;-68
2023/04/05 05:31:32;;;;;;;;;6.75;4.25;;;;;21.03;32.82;101580.06;5059019;27;72542;-68
2023/04/05 05:33:58;;;;;;;;;5.00;4.50;;;;;21.03;32.61;101577.38;5065560;27;46021;-68
2023/04/05 05:36:24;;;;;;;;;5.50;4.50;;;;;21.05;32.82;101580.81;5070831;27;45463;-73
2023/04/05 05:38:51;;;;;;;;;5.50;4.75;;;;;21.04;32.81;101569.31;5064841;27;45887;-74
2023/04/05 05:41:16;;;;;;;;;4.75;4.75;;;;;21.09;32.89;101577.06;5073218;27;46310;-68
2023/04/05 05:43:42;;;;;;;;;5.50;5.00;;;;;21.09;33.36;101585.03;5064604;27;45319;-71
2023/04/05 05:46:07;;;;;;;;;7.50;6.50;;;;;21.09;33.10;101579.72;5067656;27;65885;-73
2023/04/05 05:48:32;;;;;;;;;6.00;6.00;;;;;21.11;33.21;101577.81;5057965;27;45558;-73
2023/04/05 05:51:08;;;;;;;;;7.25;5.00;;;;;21.11;32.83;101580.47;5077804;27;70234;-73
2023/04/05 05:53:33;;;;;;;;;7.00;5.00;;;;;21.14;33.25;101579.44;5093087;27;45351;-74
2023/04/05 05:55:59;;;;;;;;;8.25;5.00;;;;;21.17;32.84;101582.78;5091536;27;45485;-73
2023/04/05 05:58:24;;;;;;;;;5.75;5.00;;;;;21.16;33.39;101580.19;5069999;27;45311;-72
2023/04/05 06:00:50;;;;;;;;;5.00;4.25;;;;;21.19;33.39;101580.88;5070102;27;45356;-75
2023/04/05 06:03:15;;;;;;;;;6.00;5.00;;;;;21.21;33.59;101581.66;5057226;27;45530;-72
2023/04/05 06:05:49;;;;;;;;;7.00;5.00;;;;;21.19;33.40;101569.38;5073700;27;46314;-75
2023/04/05 06:08:15;;;;;;;;;5.50;4.00;;;;;21.23;33.58;101574.44;5065058;28;45475;-76
2023/04/05 06:10:41;;;;;;;;;7.00;6.00;;;;;21.26;33.86;101585.84;5073614;27;45948;-74
2023/04/05 06:13:06;;;;;;;;;6.00;5.25;;;;;21.29;33.20;101585.69;5062192;28;45343;-75
2023/04/05 06:15:31;;;;;;;;;5.75;4.25;;;;;21.30;33.64;101590.91;5067077;27;45542;-75
2023/04/05 06:17:57;;;;;;;;;5.00;5.00;;;;;21.33;33.47;101590.72;5089148;27;60311;-74
2023/04/05 06:20:22;;;;;;;;;6.25;4.50;;;;;21.33;33.41;101590.72;5088089;27;68901;-74
2023/04/05 06:22:48;;;;;;;;;6.75;5.00;;;;;21.34;33.77;101587.13;5071089;27;72360;-74
2023/04/05 06:25:13;;;;;;;;;6.00;6.00;;;;;21.37;33.39;101594.06;5098657;27;45433;-70
2023/04/05 06:27:38;;;;;;;;;6.75;5.00;;;;;21.37;33.37;101583.41;5077609;27;63640;-68
2023/04/05 06:30:05;;;;;;;;;7.00;5.50;;;;;21.41;33.32;101604.44;5086182;27;46230;-68
2023/04/05 06:32:30;;;;;;;;;6.50;5.25;;;;;21.38;33.87;101595.78;5061974;27;45371;-68
2023/04/05 06:34:55;;;;;;;;;7.50;5.75;;;;;21.46;33.86;101601.56;5088949;27;45276;-72
2023/04/05 06:37:21;;;;;;;;;6.50;6.00;;;;;21.47;33.56;101602.41;5089251;27;45531;-68
2023/04/05 06:39:46;;;;;;;;;7.25;6.75;;;;;21.48;33.95;101599.66;5051361;27;46958;-67
2023/04/05 06:42:11;;;;;;;;;6.00;5.25;;;;;21.50;33.66;101607.56;5091527;27;57893;-67
2023/04/05 06:44:37;;;;;;;;;12.50;9.75;;;;;21.50;33.56;101589.78;5085071;27;68386;-68
2023/04/05 06:47:03;;;;;;;;;7.25;5.25;;;;;21.51;33.98;101594.13;5082862;27;62215;-68
2023/04/05 06:49:29;;;;;;;;;6.75;5.25;;;;;21.54;33.54;101601.94;5062967;27;45481;-68
2023/04/05 06:51:54;;;;;;;;;7.50;7.00;;;;;21.55;33.96;101602.81;5056125;27;45608;-68
2023/04/05 06:54:22;;;;;;;;;7.75;6.25;;;;;21.56;33.97;101608.03;5066476;27;67692;-68
2023/04/05 06:56:47;;;;;;;;;7.00;6.00;;;;;21.56;33.45;101601.84;5067607;27;45789;-68
2023/04/05 06:59:12;;;;;;;;;9.00;5.75;;;;;21.58;33.93;101614.16;5086373;27;45621;-68
2023/04/05 07:01:38;;;;;;;;;8.00;5.75;;;;;21.60;33.49;101608.69;5080660;27;51432;-68
2023/04/05 07:04:03;;;;;;;;;6.25;6.25;;;;;21.60;33.93;101609.59;5072304;27;48172;-68
2023/04/05 07:06:28;;;;;;;;;7.00;6.00;;;;;21.62;33.58;101606.84;5082648;27;64234;-68
2023/04/05 07:08:54;;;;;;;;;6.50;6.25;;;;;21.63;33.71;101610.34;5076253;27;59059;-68
2023/04/05 07:11:20;;;;;;;;;7.00;6.00;;;;;21.65;33.52;101624.44;5084667;27;45311;-70
2023/04/05 07:13:45;;;;;;;;;5.00;4.25;;;;;21.64;33.61;101612.91;5103316;27;45433;-69
2023/04/05 07:16:11;;;;;;;;;8.75;6.75;;;;;21.64;33.49;101610.25;5062922;27;49801;-68
2023/04/05 07:18:36;;;;;;;;;7.25;5.00;;;;;21.66;33.50;101613.69;5084390;27;56932;-69
2023/04/05 07:21:02;;;;;;;;;6.75;4.25;;;;;21.68;33.59;101617.09;5078043;27;45515;-71
2023/04/05 07:23:29;;;;;;;;;7.75;7.00;;;;;21.69;33.46;101621.50;5067055;28;45379;-69
2023/04/05 07:25:59;;;;;;;;;11.25;7.00;;;;;21.70;33.48;101615.19;5079598;27;45537;-72
2023/04/05 07:28:25;;;;;;;;;5.75;5.75;;;;;21.74;33.54;101621.22;5067408;27;46256;-72
2023/04/05 07:30:50;;;;;;;;;10.00;7.00;;;;;21.74;33.64;101624.75;5074984;28;45394;-71
2023/04/05 07:33:16;;;;;;;;;7.00;6.00;;;;;21.78;34.18;101622.75;5075332;27;66509;-72
2023/04/05 07:35:41;;;;;;;;;7.00;5.75;;;;;21.79;34.43;101624.44;5082142;27;46100;-72
2023/04/05 07:38:08;;;;;;;;;8.50;6.50;;;;;21.77;34.69;101616.56;5060528;28;47173;-71
2023/04/05 07:40:33;;;;;;;;;6.25;6.25;;;;;21.83;34.07;101620.66;5082379;27;45427;-73
2023/04/05 07:42:59;;;;;;;;;6.50;5.50;;;;;21.85;34.65;101617.88;5068241;27;45302;-79
2023/04/05 07:45:24;;;;;;;;;10.00;6.00;;;;;21.89;34.61;101624.78;5083863;27;45258;-78
2023/04/05 07:47:50;;;;;;;;;4.75;4.75;;;;;21.85;34.88;101616.09;5081519;27;45568;-80
2023/04/05 07:50:15;;;;;;;;;7.00;6.50;;;;;21.87;35.02;101613.31;5062236;28;45171;-79
2023/04/05 07:52:41;;;;;;;;;6.00;6.00;;;;;21.92;35.01;101620.13;5073312;28;45361;-81
2023/04/05 07:55:08;;;;;;;;;6.75;6.50;;;;;21.96;34.19;101618.97;5063708;27;45373;-81
2023/04/05 07:57:33;;;;;;;;;10.00;6.00;;;;;21.97;34.71;101611.81;5057880;28;48128;-82
2023/04/05 07:59:59;;;;;;;;;9.00;7.00;;;;;21.97;34.82;101604.69;5079254;27;45245;-80
2023/04/05 08:02:24;;;;;;;;;6.25;6.25;;;;;22.03;34.79;101608.78;5063641;27;45379;-74
2023/04/05 08:04:49;;;;;;;;;7.50;7.25;;;;;22.01;34.96;101597.38;5091949;27;45537;-75
2023/04/05 08:07:15;;;;;;;;;7.75;6.75;;;;;22.08;35.04;101600.50;5066572;27;47380;-75
2023/04/05 08:09:40;;;;;;;;;6.50;5.50;;;;;22.10;34.69;101595.94;5084378;27;45485;-75
2023/04/05 08:12:06;;;;;;;;;7.00;6.25;;;;;22.16;35.00;101603.56;5077670;27;68582;-74
2023/04/05 08:14:31;;;;;;;;;8.00;7.00;;;;;22.17;34.81;101599.94;5076949;27;45384;-73
2023/04/05 08:16:57;;;;;;;;;6.75;6.75;;;;;22.21;34.62;101600.63;5090309;27;55057;-71
2023/04/05 08:19:22;;;;;;;;;6.75;5.00;;;;;22.22;34.54;101602.31;5053139;28;67609;-71
2023/04/05 08:21:47;;;;;;;;;7.50;6.00;;;;;22.18;34.55;101598.97;5073767;27;57523;-76
2023/04/05 08:24:13;;;;;;;;;8.00;6.25;;;;;22.23;34.81;101607.53;5063209;27;62456;-76
2023/04/05 08:26:40;;;;;;;;;7.50;5.50;;;;;22.25;34.39;101615.47;5078728;27;46572;-73
2023/04/05 08:29:05;;;;;;;;;10.00;6.50;;;;;22.27;34.43;101621.56;5095493;27;45345;-73
2023/04/05 08:31:32;;;;;;;;;8.25;5.75;;;;;22.24;34.18;101614.59;5076647;27;45248;-71
2023/04/05 08:33:57;;;;;;;;;9.75;7.50;;;;;22.29;34.48;101620.53;5063169;27;45475;-70
2023/04/05 08:36:23;;;;;;;;;11.00;7.00;;;;;22.28;34.27;101610.81;5096220;27;62742;-67
2023/04/05 08:38:48;;;;;;;;;8.00;6.00;;;;;22.31;34.14;101613.31;5095019;27;69569;-67
2023/04/05 08:41:17;;;;;;;;;9.25;7.00;;;;;22.30;34.69;101616.91;5093063;27;45333;-67
2023/04/05 08:44:01;;;;;;;;;7.00;6.75;;;;;22.31;34.44;101613.31;5064717;27;45670;-67
2023/04/05 08:46:29;;;;;;;;;9.75;6.25;;;;;22.31;34.38;101613.31;5080734;27;46179;-67
2023/04/05 08:48:57;;;;;;;;;8.00;5.50;;;;;22.30;34.65;101611.56;5056568;27;45465;-67
2023/04/05 08:51:23;;;;;;;;;7.25;5.75;;;;;22.30;34.20;101608.91;5075684;27;45569;-67
2023/04/05 08:53:48;;;;;;;;;5.25;4.75;;;;;22.33;34.38;101615.88;5058766;27;45250;-67
2023/04/05 08:56:15;;;;;;;;;7.75;5.00;;;;;22.32;33.98;101611.47;5080800;27;69547;-67
2023/04/05 08:58:45;;;;;;;;;5.50;4.25;;;;;22.35;34.33;101616.63;5054923;27;45255;-68
2023/04/05 09:01:11;;;;;;;;;7.25;4.50;;;;;22.32;34.46;101616.81;5090264;27;45341;-67
2023/04/05 09:03:39;;;;;;;;;7.00;6.00;;;;;22.34;34.07;101615.75;5076794;27;70470;-67
2023/04/05 09:06:08;;;;;;;;;6.75;5.75;;;;;22.36;34.37;101618.31;5083218;27;46130;-67
2023/04/05 09:08:33;;;;;;;;;6.00;5.00;;;;;22.36;34.32;101613.88;5052618;27;46067;-67
2023/04/05 09:10:59;;;;;;;;;6.50;4.00;;;;;22.35;34.17;101614.81;5064759;27;59858;-67
2023/04/05 09:13:24;;;;;;;;;5.00;4.00;;;;;22.37;34.31;101620.06;5080534;27;45335;-67
2023/04/05 09:15:50;;;;;;;;;5.00;5.00;;;;;22.34;33.81;101612.25;5068946;27;46038;-67
2023/04/05 09:18:16;;;;;;;;;6.00;4.25;;;;;22.34;34.01;101610.41;5087036;27;45936;-67
2023/04/05 09:20:41;;;;;;;;;5.25;4.25;;;;;22.35;34.10;101612.16;5081855;27;45448;-67
2023/04/05 09:23:07;;;;;;;;;6.75;4.50;;;;;22.37;34.08;101612.91;5068273;27;45520;-67
2023/04/05 09:25:41;;;;;;;;;5.75;4.50;;;;;22.37;33.72;101615.56;5088439;27;70745;-67
2023/04/05 09:28:07;;;;;;;;;7.50;6.00;;;;;22.37;33.81;101614.72;5088688;27;45316;-67
2023/04/05 09:30:34;;;;;;;;;4.50;4.50;;;;;22.35;33.96;101608.63;5095501;27;45397;-67
2023/04/05 09:32:59;;;;;;;;;5.00;4.25;;;;;22.35;33.55;101606.81;5068373;27;45838;-66
2023/04/05 09:35:29;;;;;;;;;7.75;5.00;;;;;22.36;33.62;101607.66;5074026;27;45447;-67
2023/04/05 09:37:56;;;;;;;;;4.25;4.25;;;;;22.37;33.46;101617.38;5071699;27;45545;-71
2023/04/05 09:40:22;;;;;;;;;7.25;6.00;;;;;22.35;33.76;101606.81;5074863;27;45293;-67
2023/04/05 09:42:47;;;;;;;;;3.25;3.25;;;;;22.34;33.39;101598.91;5080576;27;67362;-67
2023/04/05 09:45:14;;;;;;;;;4.00;3.00;;;;;22.35;33.61;101596.16;5076473;27;47292;-71
2023/04/05 09:47:40;;;;;;;;;3.50;3.50;;;;;22.32;33.74;101595.47;5076950;27;45458;-72
2023/04/05 09:50:26;;;;;;;;;4.75;4.75;;;;;22.40;33.69;101606.53;5069530;28;45412;-70
2023/04/05 09:53:05;;;;;;;;;4.25;3.25;;;;;22.41;33.97;101605.56;5063521;28;45638;-72
2023/04/05 09:55:32;;;;;;;;;4.75;4.50;;;;;22.43;33.69;101597.47;5096544;27;45552;-71
2023/04/05 09:57:57;;;;;;;;;9.50;9.00;;;;;22.39;34.00;101593.28;5061871;27;45757;-70
2023/04/05 10:00:22;;;;;;;;;81.67;72.67;;;;;22.43;34.04;101594.81;5063425;27;67733;-70
2023/04/05 10:02:52;;;;;;;;;137.50;121.00;;;;;22.45;34.00;101604.44;5059622;27;45489;-72
2023/04/05 10:05:17;;;;;;;;;259.25;210.50;;;;;22.45;33.94;101591.09;5088801;27;46538;-71
2023/04/05 10:07:43;;;;;;;;;321.33;260.33;;;;;22.44;34.21;101594.72;5059743;28;68713;-70
2023/04/05 10:10:12;;;;;;;;;308.50;257.00;;;;;22.47;34.10;101588.31;5060030;27;45704;-70
2023/04/05 10:12:40;;;;;;;;;325.50;273.00;;;;;22.46;33.88;101595.47;5068396;27;45581;-74
2023/04/05 10:15:09;;;;;;;;;133.50;115.00;;;;;22.48;33.86;101598.88;5075604;27;46187;-72
2023/04/05 10:17:50;;;;;;;;;62.50;47.00;;;;;22.39;33.55;101594.13;5060085;27;45516;-69
2023/04/05 10:20:17;;;;;;;;;67.25;50.25;;;;;22.29;33.03;101583.22;5054083;27;45529;-68
2023/04/05 10:23:09;;;;;;;;;102.75;85.75;;;;;22.17;32.83;101587.47;5086009;27;45613;-67
2023/04/05 10:25:52;;;;;;;;;110.50;84.75;;;;;22.12;32.50;101586.03;5090526;27;45475;-68
2023/04/05 10:28:35;;;;;;;;;99.75;86.00;;;;;22.07;32.43;101577.47;5068267;27;45175;-67
2023/04/05 10:31:18;;;;;;;;;100.00;84.50;;;;;22.07;32.38;101580.13;5072479;28;45324;-67
2023/04/05 10:33:46;;;;;;;;;110.75;88.00;;;;;22.04;32.02;101569.66;5084186;27;45431;-66
2023/04/05 10:36:36;;;;;;;;;109.50;89.75;;;;;22.06;31.90;101568.63;5070849;27;45600;-68
2023/04/05 10:39:11;;;;;;;;;89.25;76.00;;;;;22.07;31.90;101569.47;5067845;27;45610;-70
2023/04/05 10:41:47;;;;;;;;;62.25;43.50;;;;;22.06;32.01;101565.97;5073530;27;45512;-70
2023/04/05 10:44:14;;;;;;;;;87.25;76.75;;;;;22.08;32.41;101561.38;5078257;27;45759;-67
2023/04/05 10:46:40;;;;;;;;;89.00;76.00;;;;;22.10;32.46;101558.63;5076378;27;46446;-74
2023/04/05 10:49:20;;;;;;;;;90.25;77.00;;;;;22.13;32.69;101551.28;5085591;27;45651;-77
2023/04/05 10:51:47;;;;;;;;;80.50;69.25;;;;;22.15;32.42;101546.72;5072544;27;45477;-69
2023/04/05 10:54:12;;;;;;;;;96.50;81.00;;;;;22.14;32.46;101546.81;5075418;27;45489;-72
2023/04/05 10:56:38;;;;;;;;;85.25;70.75;;;;;22.19;32.42;101550.88;5073721;27;45459;-71
2023/04/05 10:59:04;;;;;;;;;83.50;70.25;;;;;22.21;32.35;101544.63;5076069;27;45515;-72
2023/04/05 11:01:30;;;;;;;;;88.00;71.75;;;;;22.20;32.55;101538.41;5074975;27;45331;-71
2023/04/05 11:03:55;;;;;;;;;84.00;68.25;;;;;22.23;33.00;101545.38;5055642;27;70416;-70
2023/04/05 11:06:24;;;;;;;;;77.50;61.75;;;;;22.24;32.83;101539.06;5070479;27;45268;-72
2023/04/05 11:08:53;;;;;;;;;78.75;57.75;;;;;22.27;32.86;101534.44;5057043;28;45837;-72
2023/04/05 11:11:21;;;;;;;;;76.00;59.25;;;;;22.25;32.87;101528.31;5058324;27;45742;-72
2023/04/05 11:13:57;;;;;;;;;73.50;59.25;;;;;22.31;32.90;101535.09;5072126;27;45444;-72
2023/04/05 11:16:23;;;;;;;;;71.25;50.50;;;;;22.26;32.78;101527.38;5078158;27;47063;-72
2023/04/05 11:18:50;;;;;;;;;71.25;53.25;;;;;22.31;32.87;101525.31;5074665;27;45595;-72
2023/04/05 11:21:21;;;;;;;;;73.50;55.50;;;;;22.33;32.81;101534.06;5078969;27;45556;-72